sensor_id;sensor_type;location;lat;lon;timestamp;pressure;altitude;pressure_sealevel;temperature
28305;BMP280;15569;42.652;23.040;2023-04-25T00:00:28;92245.56;;;14.49
28305;BMP280;15569;42.652;23.040;2023-04-25T00:02:54;92257.66;;;14.40
28305;BMP280;15569;42.652;23.040;2023-04-25T00:05:22;92246.69;;;14.38
28305;BMP280;15569;42.652;23.040;2023-04-25T00:07:49;92246.81;;;14.44
28305;BMP280;15569;42.652;23.040;2023-04-25T00:10:15;92245.63;;;14.51
28305;BMP280;15569;42.652;23.040;2023-04-25T00:12:40;92239.50;;;14.53
28305;BMP280;15569;42.652;23.040;2023-04-25T00:15:07;92233.94;;;14.49
28305;BMP280;15569;42.652;23.040;2023-04-25T00:17:33;92238.53;;;14.40
28305;BMP280;15569;42.652;23.040;2023-04-25T00:20:00;92245.97;;;14.37
28305;BMP280;15569;42.652;23.040;2023-04-25T00:22:26;92243.66;;;14.26
28305;BMP280;15569;42.652;23.040;2023-04-25T00:24:51;92237.78;;;14.37
28305;BMP280;15569;42.652;23.040;2023-04-25T00:27:18;92242.06;;;13.89
28305;BMP280;15569;42.652;23.040;2023-04-25T00:29:43;92242.75;;;13.90
28305;BMP280;15569;42.652;23.040;2023-04-25T00:32:09;92248.06;;;13.58
28305;BMP280;15569;42.652;23.040;2023-04-25T00:34:35;92247.75;;;13.72
28305;BMP280;15569;42.652;23.040;2023-04-25T00:37:01;92235.91;;;13.89
28305;BMP280;15569;42.652;23.040;2023-04-25T00:39:27;92236.88;;;14.01
28305;BMP280;15569;42.652;23.040;2023-04-25T00:41:54;92222.09;;;14.10
28305;BMP280;15569;42.652;23.040;2023-04-25T00:44:20;92226.03;;;14.31
28305;BMP280;15569;42.652;23.040;2023-04-25T00:46:47;92216.53;;;14.34
28305;BMP280;15569;42.652;23.040;2023-04-25T00:49:13;92216.66;;;14.40
28305;BMP280;15569;42.652;23.040;2023-04-25T00:51:41;92210.72;;;14.50
28305;BMP280;15569;42.652;23.040;2023-04-25T00:54:07;92206.09;;;14.56
28305;BMP280;15569;42.652;23.040;2023-04-25T00:56:32;92210.16;;;14.55
28305;BMP280;15569;42.652;23.040;2023-04-25T00:58:58;92203.63;;;14.38
28305;BMP280;15569;42.652;23.040;2023-04-25T01:01:23;92213.38;;;14.46
28305;BMP280;15569;42.652;23.040;2023-04-25T01:03:49;92206.88;;;14.31
28305;BMP280;15569;42.652;23.040;2023-04-25T01:06:16;92207.13;;;14.41
28305;BMP280;15569;42.652;23.040;2023-04-25T01:08:41;92199.06;;;14.47
28305;BMP280;15569;42.652;23.040;2023-04-25T01:11:07;92188.13;;;14.49
28305;BMP280;15569;42.652;23.040;2023-04-25T01:13:33;92177.72;;;14.42
28305;BMP280;15569;42.652;23.040;2023-04-25T01:15:59;92183.88;;;14.42
28305;BMP280;15569;42.652;23.040;2023-04-25T01:18:26;92177.75;;;14.44
28305;BMP280;15569;42.652;23.040;2023-04-25T01:20:52;92190.66;;;14.39
28305;BMP280;15569;42.652;23.040;2023-04-25T01:23:19;92185.97;;;14.44
28305;BMP280;15569;42.652;23.040;2023-04-25T01:25:45;92185.91;;;14.42
28305;BMP280;15569;42.652;23.040;2023-04-25T01:28:11;92186.34;;;14.30
28305;BMP280;15569;42.652;23.040;2023-04-25T01:30:37;92199.63;;;14.14
28305;BMP280;15569;42.652;23.040;2023-04-25T01:33:03;92190.56;;;14.05
28305;BMP280;15569;42.652;23.040;2023-04-25T01:35:30;92192.53;;;14.03
28305;BMP280;15569;42.652;23.040;2023-04-25T01:37:56;92192.88;;;14.17
28305;BMP280;15569;42.652;23.040;2023-04-25T01:40:22;92199.06;;;14.19
28305;BMP280;15569;42.652;23.040;2023-04-25T01:42:48;92199.28;;;14.27
28305;BMP280;15569;42.652;23.040;2023-04-25T01:45:14;92211.84;;;14.38
28305;BMP280;15569;42.652;23.040;2023-04-25T01:47:39;92195.28;;;14.32
28305;BMP280;15569;42.652;23.040;2023-04-25T01:50:06;92203.59;;;14.36
28305;BMP280;15569;42.652;23.040;2023-04-25T01:52:32;92203.63;;;14.38
28305;BMP280;15569;42.652;23.040;2023-04-25T01:54:59;92194.53;;;14.30
28305;BMP280;15569;42.652;23.040;2023-04-25T01:57:25;92196.00;;;14.33
28305;BMP280;15569;42.652;23.040;2023-04-25T01:59:51;92188.91;;;14.22
28305;BMP280;15569;42.652;23.040;2023-04-25T02:02:16;92177.50;;;14.31
28305;BMP280;15569;42.652;23.040;2023-04-25T02:04:42;92183.84;;;14.40
28305;BMP280;15569;42.652;23.040;2023-04-25T02:07:07;92189.50;;;14.48
28305;BMP280;15569;42.652;23.040;2023-04-25T02:09:33;92184.59;;;14.43
28305;BMP280;15569;42.652;23.040;2023-04-25T02:11:58;92182.53;;;14.43
28305;BMP280;15569;42.652;23.040;2023-04-25T02:14:23;92180.84;;;14.60
28305;BMP280;15569;42.652;23.040;2023-04-25T02:16:49;92175.56;;;14.68
28305;BMP280;15569;42.652;23.040;2023-04-25T02:19:16;92170.88;;;14.72
28305;BMP280;15569;42.652;23.040;2023-04-25T02:21:41;92173.75;;;14.78
28305;BMP280;15569;42.652;23.040;2023-04-25T02:24:07;92166.16;;;14.77
28305;BMP280;15569;42.652;23.040;2023-04-25T02:26:33;92162.06;;;14.76
28305;BMP280;15569;42.652;23.040;2023-04-25T02:28:58;92165.41;;;14.72
28305;BMP280;15569;42.652;23.040;2023-04-25T02:31:23;92158.97;;;14.58
28305;BMP280;15569;42.652;23.040;2023-04-25T02:33:49;92151.56;;;14.64
28305;BMP280;15569;42.652;23.040;2023-04-25T02:36:15;92152.94;;;14.65
28305;BMP280;15569;42.652;23.040;2023-04-25T02:38:40;92155.81;;;14.71
28305;BMP280;15569;42.652;23.040;2023-04-25T02:41:06;92155.09;;;14.69
28305;BMP280;15569;42.652;23.040;2023-04-25T02:43:31;92148.16;;;14.66
28305;BMP280;15569;42.652;23.040;2023-04-25T02:45:56;92151.81;;;14.76
28305;BMP280;15569;42.652;23.040;2023-04-25T02:48:22;92144.44;;;14.85
28305;BMP280;15569;42.652;23.040;2023-04-25T02:50:47;92145.72;;;14.80
28305;BMP280;15569;42.652;23.040;2023-04-25T02:53:12;92143.13;;;14.86
28305;BMP280;15569;42.652;23.040;2023-04-25T02:55:38;92139.75;;;14.87
28305;BMP280;15569;42.652;23.040;2023-04-25T02:58:04;92144.66;;;14.95
28305;BMP280;15569;42.652;23.040;2023-04-25T03:00:30;92142.75;;;15.01
28305;BMP280;15569;42.652;23.040;2023-04-25T03:02:55;92139.28;;;14.99
28305;BMP280;15569;42.652;23.040;2023-04-25T03:05:20;92133.88;;;15.03
28305;BMP280;15569;42.652;23.040;2023-04-25T03:07:46;92136.72;;;15.09
28305;BMP280;15569;42.652;23.040;2023-04-25T03:10:12;92130.63;;;15.10
28305;BMP280;15569;42.652;23.040;2023-04-25T03:12:37;92127.72;;;15.02
28305;BMP280;15569;42.652;23.040;2023-04-25T03:15:03;92126.47;;;15.09
28305;BMP280;15569;42.652;23.040;2023-04-25T03:17:29;92129.22;;;15.11
28305;BMP280;15569;42.652;23.040;2023-04-25T03:19:54;92131.41;;;15.17
28305;BMP280;15569;42.652;23.040;2023-04-25T03:22:20;92121.94;;;15.24
28305;BMP280;15569;42.652;23.040;2023-04-25T03:24:45;92120.63;;;15.25
28305;BMP280;15569;42.652;23.040;2023-04-25T03:27:11;92121.41;;;15.32
28305;BMP280;15569;42.652;23.040;2023-04-25T03:29:36;92121.44;;;15.34
28305;BMP280;15569;42.652;23.040;2023-04-25T03:32:01;92126.94;;;15.36
28305;BMP280;15569;42.652;23.040;2023-04-25T03:34:27;92131.44;;;15.19
28305;BMP280;15569;42.652;23.040;2023-04-25T03:36:53;92132.19;;;15.21
28305;BMP280;15569;42.652;23.040;2023-04-25T03:39:18;92131.25;;;15.09
28305;BMP280;15569;42.652;23.040;2023-04-25T03:41:43;92143.63;;;15.12
28305;BMP280;15569;42.652;23.040;2023-04-25T03:44:09;92139.81;;;14.91
28305;BMP280;15569;42.652;23.040;2023-04-25T03:46:34;92143.19;;;14.56
28305;BMP280;15569;42.652;23.040;2023-04-25T03:49:00;92130.59;;;14.75
28305;BMP280;15569;42.652;23.040;2023-04-25T03:51:25;92143.03;;;14.82
28305;BMP280;15569;42.652;23.040;2023-04-25T03:53:51;92128.00;;;14.83
28305;BMP280;15569;42.652;23.040;2023-04-25T03:56:17;92130.34;;;14.96
28305;BMP280;15569;42.652;23.040;2023-04-25T03:58:42;92124.16;;;14.96
28305;BMP280;15569;42.652;23.040;2023-04-25T04:01:08;92127.78;;;15.06
28305;BMP280;15569;42.652;23.040;2023-04-25T04:03:34;92141.28;;;14.63
28305;BMP280;15569;42.652;23.040;2023-04-25T04:06:06;92152.94;;;14.65
28305;BMP280;15569;42.652;23.040;2023-04-25T04:08:32;92148.28;;;14.70
28305;BMP280;15569;42.652;23.040;2023-04-25T04:10:58;92136.03;;;14.73
28305;BMP280;15569;42.652;23.040;2023-04-25T04:13:26;92128.50;;;14.73
28305;BMP280;15569;42.652;23.040;2023-04-25T04:15:51;92140.41;;;14.88
28305;BMP280;15569;42.652;23.040;2023-04-25T04:18:17;92138.59;;;14.98
28305;BMP280;15569;42.652;23.040;2023-04-25T04:20:42;92131.19;;;15.05
28305;BMP280;15569;42.652;23.040;2023-04-25T04:23:08;92138.22;;;15.14
28305;BMP280;15569;42.652;23.040;2023-04-25T04:25:33;92135.47;;;15.14
28305;BMP280;15569;42.652;23.040;2023-04-25T04:27:59;92132.19;;;15.21
28305;BMP280;15569;42.652;23.040;2023-04-25T04:30:26;92130.56;;;15.08
28305;BMP280;15569;42.652;23.040;2023-04-25T04:32:55;92127.94;;;15.14
28305;BMP280;15569;42.652;23.040;2023-04-25T04:35:21;92133.53;;;15.20
28305;BMP280;15569;42.652;23.040;2023-04-25T04:37:47;92131.63;;;15.29
28305;BMP280;15569;42.652;23.040;2023-04-25T04:40:13;92130.88;;;15.24
28305;BMP280;15569;42.652;23.040;2023-04-25T04:42:44;92124.88;;;15.32
28305;BMP280;15569;42.652;23.040;2023-04-25T04:45:11;92122.34;;;15.46
28305;BMP280;15569;42.652;23.040;2023-04-25T04:47:37;92126.50;;;15.47
28305;BMP280;15569;42.652;23.040;2023-04-25T04:50:08;92118.31;;;15.51
28305;BMP280;15569;42.652;23.040;2023-04-25T04:52:35;92128.19;;;15.68
28305;BMP280;15569;42.652;23.040;2023-04-25T04:55:02;92133.72;;;15.70
28305;BMP280;15569;42.652;23.040;2023-04-25T04:57:28;92139.81;;;15.67
28305;BMP280;15569;42.652;23.040;2023-04-25T04:59:53;92156.53;;;15.83
28305;BMP280;15569;42.652;23.040;2023-04-25T05:02:18;92144.22;;;15.84
28305;BMP280;15569;42.652;23.040;2023-04-25T05:04:44;92144.31;;;15.90
28305;BMP280;15569;42.652;23.040;2023-04-25T05:07:10;92143.06;;;15.97
28305;BMP280;15569;42.652;23.040;2023-04-25T05:09:35;92143.59;;;15.89
28305;BMP280;15569;42.652;23.040;2023-04-25T05:12:00;92152.03;;;16.01
28305;BMP280;15569;42.652;23.040;2023-04-25T05:14:26;92143.88;;;16.05
28305;BMP280;15569;42.652;23.040;2023-04-25T05:16:51;92152.91;;;16.12
28305;BMP280;15569;42.652;23.040;2023-04-25T05:19:17;92148.13;;;16.12
28305;BMP280;15569;42.652;23.040;2023-04-25T05:21:42;92144.16;;;16.26
28305;BMP280;15569;42.652;23.040;2023-04-25T05:24:08;92142.19;;;16.30
28305;BMP280;15569;42.652;23.040;2023-04-25T05:26:33;92133.97;;;16.32
28305;BMP280;15569;42.652;23.040;2023-04-25T05:28:59;92140.25;;;16.41
28305;BMP280;15569;42.652;23.040;2023-04-25T05:31:25;92145.06;;;15.53
28305;BMP280;15569;42.652;23.040;2023-04-25T05:33:51;92140.22;;;15.91
28305;BMP280;15569;42.652;23.040;2023-04-25T05:36:16;92140.53;;;16.11
28305;BMP280;15569;42.652;23.040;2023-04-25T05:38:41;92131.84;;;16.27
28305;BMP280;15569;42.652;23.040;2023-04-25T05:41:07;92139.91;;;16.14
28305;BMP280;15569;42.652;23.040;2023-04-25T05:43:33;92146.50;;;15.99
28305;BMP280;15569;42.652;23.040;2023-04-25T05:45:58;92140.47;;;16.07
28305;BMP280;15569;42.652;23.040;2023-04-25T05:48:24;92142.88;;;15.85
28305;BMP280;15569;42.652;23.040;2023-04-25T05:50:49;92147.50;;;16.20
28305;BMP280;15569;42.652;23.040;2023-04-25T05:53:16;92138.59;;;16.17
28305;BMP280;15569;42.652;23.040;2023-04-25T05:55:42;92131.59;;;15.67
28305;BMP280;15569;42.652;23.040;2023-04-25T05:58:07;92140.13;;;15.43
28305;BMP280;15569;42.652;23.040;2023-04-25T06:00:33;92142.81;;;15.81
28305;BMP280;15569;42.652;23.040;2023-04-25T06:02:58;92148.03;;;16.08
28305;BMP280;15569;42.652;23.040;2023-04-25T06:05:24;92144.00;;;15.70
28305;BMP280;15569;42.652;23.040;2023-04-25T06:07:50;92150.00;;;16.02
28305;BMP280;15569;42.652;23.040;2023-04-25T06:10:15;92150.00;;;16.04
28305;BMP280;15569;42.652;23.040;2023-04-25T06:12:40;92143.22;;;16.07
28305;BMP280;15569;42.652;23.040;2023-04-25T06:15:06;92145.00;;;16.36
28305;BMP280;15569;42.652;23.040;2023-04-25T06:17:32;92150.09;;;16.10
28305;BMP280;15569;42.652;23.040;2023-04-25T06:19:58;92145.00;;;15.90
28305;BMP280;15569;42.652;23.040;2023-04-25T06:22:23;92157.69;;;16.11
28305;BMP280;15569;42.652;23.040;2023-04-25T06:24:49;92158.38;;;16.12
28305;BMP280;15569;42.652;23.040;2023-04-25T06:27:14;92154.38;;;16.19
28305;BMP280;15569;42.652;23.040;2023-04-25T06:29:39;92158.75;;;16.38
28305;BMP280;15569;42.652;23.040;2023-04-25T06:32:05;92154.75;;;15.58
28305;BMP280;15569;42.652;23.040;2023-04-25T06:34:30;92163.03;;;16.03
28305;BMP280;15569;42.652;23.040;2023-04-25T06:36:56;92149.69;;;15.82
28305;BMP280;15569;42.652;23.040;2023-04-25T06:39:21;92160.84;;;15.96
28305;BMP280;15569;42.652;23.040;2023-04-25T06:41:48;92150.09;;;16.10
28305;BMP280;15569;42.652;23.040;2023-04-25T06:44:14;92164.25;;;14.81
28305;BMP280;15569;42.652;23.040;2023-04-25T06:46:40;92159.88;;;15.02
28305;BMP280;15569;42.652;23.040;2023-04-25T06:49:06;92162.72;;;15.44
28305;BMP280;15569;42.652;23.040;2023-04-25T06:51:31;92163.75;;;15.26
28305;BMP280;15569;42.652;23.040;2023-04-25T06:53:57;92167.94;;;15.69
28305;BMP280;15569;42.652;23.040;2023-04-25T06:56:22;92160.25;;;15.60
28305;BMP280;15569;42.652;23.040;2023-04-25T06:58:48;92162.16;;;15.91
28305;BMP280;15569;42.652;23.040;2023-04-25T07:01:14;92170.75;;;15.73
28305;BMP280;15569;42.652;23.040;2023-04-25T07:03:39;92161.91;;;15.39
28305;BMP280;15569;42.652;23.040;2023-04-25T07:06:05;92165.75;;;15.24
28305;BMP280;15569;42.652;23.040;2023-04-25T07:08:31;92167.75;;;14.86
28305;BMP280;15569;42.652;23.040;2023-04-25T07:10:56;92168.38;;;14.51
28305;BMP280;15569;42.652;23.040;2023-04-25T07:13:21;92165.91;;;14.63
28305;BMP280;15569;42.652;23.040;2023-04-25T07:15:47;92164.97;;;14.52
28305;BMP280;15569;42.652;23.040;2023-04-25T07:18:13;92173.88;;;13.93
28305;BMP280;15569;42.652;23.040;2023-04-25T07:20:38;92160.78;;;13.90
28305;BMP280;15569;42.652;23.040;2023-04-25T07:23:04;92136.59;;;14.06
28305;BMP280;15569;42.652;23.040;2023-04-25T07:25:29;92152.88;;;14.29
28305;BMP280;15569;42.652;23.040;2023-04-25T07:27:56;92147.63;;;14.10
28305;BMP280;15569;42.652;23.040;2023-04-25T07:30:21;92149.00;;;14.41
28305;BMP280;15569;42.652;23.040;2023-04-25T07:32:48;92150.94;;;14.06
28305;BMP280;15569;42.652;23.040;2023-04-25T07:35:13;92129.94;;;14.76
28305;BMP280;15569;42.652;23.040;2023-04-25T07:37:39;92135.50;;;15.16
28305;BMP280;15569;42.652;23.040;2023-04-25T07:40:05;92141.31;;;14.65
28305;BMP280;15569;42.652;23.040;2023-04-25T07:42:31;92138.44;;;14.90
28305;BMP280;15569;42.652;23.040;2023-04-25T07:44:57;92128.31;;;15.35
28305;BMP280;15569;42.652;23.040;2023-04-25T07:47:22;92130.91;;;15.26
28305;BMP280;15569;42.652;23.040;2023-04-25T07:49:48;92139.47;;;15.86
28305;BMP280;15569;42.652;23.040;2023-04-25T07:52:13;92137.97;;;15.38
28305;BMP280;15569;42.652;23.040;2023-04-25T07:54:39;92126.75;;;15.63
28305;BMP280;15569;42.652;23.040;2023-04-25T07:57:04;92135.34;;;15.85
28305;BMP280;15569;42.652;23.040;2023-04-25T07:59:32;92128.38;;;15.78
28305;BMP280;15569;42.652;23.040;2023-04-25T08:01:57;92146.03;;;16.13
28305;BMP280;15569;42.652;23.040;2023-04-25T08:04:23;92127.25;;;15.52
28305;BMP280;15569;42.652;23.040;2023-04-25T08:09:13;92136.44;;;15.31
28305;BMP280;15569;42.652;23.040;2023-04-25T08:11:40;92122.25;;;15.40
28305;BMP280;15569;42.652;23.040;2023-04-25T08:14:06;92138.28;;;15.97
28305;BMP280;15569;42.652;23.040;2023-04-25T08:16:32;92117.69;;;15.53
28305;BMP280;15569;42.652;23.040;2023-04-25T08:18:59;92126.78;;;15.65
28305;BMP280;15569;42.652;23.040;2023-04-25T08:21:24;92130.50;;;15.84
28305;BMP280;15569;42.652;23.040;2023-04-25T08:23:50;92123.88;;;15.97
28305;BMP280;15569;42.652;23.040;2023-04-25T08:26:16;92125.03;;;15.84
28305;BMP280;15569;42.652;23.040;2023-04-25T08:28:41;92134.91;;;15.59
28305;BMP280;15569;42.652;23.040;2023-04-25T08:31:06;92133.84;;;15.39
28305;BMP280;15569;42.652;23.040;2023-04-25T08:33:32;92118.59;;;15.67
28305;BMP280;15569;42.652;23.040;2023-04-25T08:35:58;92118.84;;;15.81
28305;BMP280;15569;42.652;23.040;2023-04-25T08:38:23;92127.63;;;15.74
28305;BMP280;15569;42.652;23.040;2023-04-25T08:40:50;92122.97;;;15.82
28305;BMP280;15569;42.652;23.040;2023-04-25T08:43:18;92128.50;;;15.86
28305;BMP280;15569;42.652;23.040;2023-04-25T08:45:44;92111.34;;;15.86
28305;BMP280;15569;42.652;23.040;2023-04-25T08:48:14;92115.53;;;16.37
28305;BMP280;15569;42.652;23.040;2023-04-25T08:50:50;92123.81;;;16.94
28305;BMP280;15569;42.652;23.040;2023-04-25T08:53:17;92121.03;;;16.92
28305;BMP280;15569;42.652;23.040;2023-04-25T08:55:45;92114.16;;;16.91
28305;BMP280;15569;42.652;23.040;2023-04-25T08:58:12;92129.31;;;16.96
28305;BMP280;15569;42.652;23.040;2023-04-25T09:00:38;92133.22;;;16.77
28305;BMP280;15569;42.652;23.040;2023-04-25T09:03:03;92120.91;;;16.82
28305;BMP280;15569;42.652;23.040;2023-04-25T09:05:29;92119.22;;;17.15
28305;BMP280;15569;42.652;23.040;2023-04-25T09:07:55;92116.81;;;16.83
28305;BMP280;15569;42.652;23.040;2023-04-25T09:10:21;92113.09;;;17.18
28305;BMP280;15569;42.652;23.040;2023-04-25T09:13:08;92113.44;;;17.55
28305;BMP280;15569;42.652;23.040;2023-04-25T09:15:58;92108.00;;;17.65
28305;BMP280;15569;42.652;23.040;2023-04-25T09:18:31;92113.06;;;17.92
28305;BMP280;15569;42.652;23.040;2023-04-25T09:23:39;92103.63;;;18.19
28305;BMP280;15569;42.652;23.040;2023-04-25T09:26:07;92112.72;;;18.44
28305;BMP280;15569;42.652;23.040;2023-04-25T09:28:32;92108.97;;;18.03
28305;BMP280;15569;42.652;23.040;2023-04-25T09:31:00;92103.41;;;17.89
28305;BMP280;15569;42.652;23.040;2023-04-25T09:33:31;92102.28;;;18.29
28305;BMP280;15569;42.652;23.040;2023-04-25T09:36:05;92113.47;;;17.61
28305;BMP280;15569;42.652;23.040;2023-04-25T09:38:32;92125.41;;;17.17
28305;BMP280;15569;42.652;23.040;2023-04-25T09:40:58;92126.50;;;16.90
28305;BMP280;15569;42.652;23.040;2023-04-25T09:43:24;92127.16;;;16.33
28305;BMP280;15569;42.652;23.040;2023-04-25T09:45:51;92144.31;;;15.90
28305;BMP280;15569;42.652;23.040;2023-04-25T09:48:18;92137.25;;;16.20
28305;BMP280;15569;42.652;23.040;2023-04-25T09:50:44;92116.63;;;16.65
28305;BMP280;15569;42.652;23.040;2023-04-25T09:53:10;92118.28;;;16.92
28305;BMP280;15569;42.652;23.040;2023-04-25T09:55:36;92125.56;;;16.70
28305;BMP280;15569;42.652;23.040;2023-04-25T09:58:05;92119.75;;;16.99
28305;BMP280;15569;42.652;23.040;2023-04-25T10:00:32;92128.41;;;17.42
28305;BMP280;15569;42.652;23.040;2023-04-25T10:03:00;92118.78;;;17.41
28305;BMP280;15569;42.652;23.040;2023-04-25T10:05:28;92124.69;;;17.11
28305;BMP280;15569;42.652;23.040;2023-04-25T10:07:55;92135.94;;;16.75
28305;BMP280;15569;42.652;23.040;2023-04-25T10:10:21;92120.34;;;16.90
28305;BMP280;15569;42.652;23.040;2023-04-25T10:12:51;92120.03;;;16.66
28305;BMP280;15569;42.652;23.040;2023-04-25T10:15:16;92120.59;;;16.56
28305;BMP280;15569;42.652;23.040;2023-04-25T10:17:42;92120.34;;;16.92
28305;BMP280;15569;42.652;23.040;2023-04-25T10:20:09;92115.69;;;17.04
28305;BMP280;15569;42.652;23.040;2023-04-25T10:22:39;92122.59;;;17.11
28305;BMP280;15569;42.652;23.040;2023-04-25T10:25:06;92121.13;;;17.02
28305;BMP280;15569;42.652;23.040;2023-04-25T10:27:33;92113.78;;;17.19
28305;BMP280;15569;42.652;23.040;2023-04-25T10:30:14;92101.75;;;17.52
28305;BMP280;15569;42.652;23.040;2023-04-25T10:32:44;92099.03;;;17.60
28305;BMP280;15569;42.652;23.040;2023-04-25T10:35:24;92099.41;;;18.06
28305;BMP280;15569;42.652;23.040;2023-04-25T10:38:09;92098.25;;;18.46
28305;BMP280;15569;42.652;23.040;2023-04-25T10:40:35;92097.75;;;18.91
28305;BMP280;15569;42.652;23.040;2023-04-25T10:45:54;92064.03;;;18.99
28305;BMP280;15569;42.652;23.040;2023-04-25T10:48:27;92077.19;;;19.49
28305;BMP280;15569;42.652;23.040;2023-04-25T10:51:11;92071.69;;;19.69
28305;BMP280;15569;42.652;23.040;2023-04-25T10:53:37;92063.31;;;20.13
28305;BMP280;15569;42.652;23.040;2023-04-25T10:56:19;92068.91;;;19.45
28305;BMP280;15569;42.652;23.040;2023-04-25T10:58:45;92060.59;;;20.05
28305;BMP280;15569;42.652;23.040;2023-04-25T11:01:15;92064.09;;;19.81
28305;BMP280;15569;42.652;23.040;2023-04-25T11:03:44;92072.34;;;19.25
28305;BMP280;15569;42.652;23.040;2023-04-25T11:09:00;92069.34;;;18.39
28305;BMP280;15569;42.652;23.040;2023-04-25T11:11:26;92097.16;;;17.79
28305;BMP280;15569;42.652;23.040;2023-04-25T11:13:52;92111.44;;;17.61
28305;BMP280;15569;42.652;23.040;2023-04-25T11:16:17;92135.63;;;15.62
28305;BMP280;15569;42.652;23.040;2023-04-25T11:18:44;92129.72;;;14.66
28305;BMP280;15569;42.652;23.040;2023-04-25T11:21:10;92118.91;;;14.72
28305;BMP280;15569;42.652;23.040;2023-04-25T11:23:36;92085.66;;;15.63
28305;BMP280;15569;42.652;23.040;2023-04-25T11:26:03;92083.97;;;16.36
28305;BMP280;15569;42.652;23.040;2023-04-25T11:28:28;92077.06;;;16.86
28305;BMP280;15569;42.652;23.040;2023-04-25T11:30:54;92069.25;;;17.29
28305;BMP280;15569;42.652;23.040;2023-04-25T11:33:23;92081.25;;;17.67
28305;BMP280;15569;42.652;23.040;2023-04-25T11:35:49;92074.03;;;18.22
28305;BMP280;15569;42.652;23.040;2023-04-25T11:38:15;92079.72;;;18.60
28305;BMP280;15569;42.652;23.040;2023-04-25T11:40:41;92081.09;;;18.49
28305;BMP280;15569;42.652;23.040;2023-04-25T11:43:06;92082.56;;;18.82
28305;BMP280;15569;42.652;23.040;2023-04-25T11:45:32;92078.50;;;19.05
28305;BMP280;15569;42.652;23.040;2023-04-25T11:47:57;92079.91;;;19.14
28305;BMP280;15569;42.652;23.040;2023-04-25T11:50:23;92070.94;;;19.28
28305;BMP280;15569;42.652;23.040;2023-04-25T11:52:48;92080.59;;;19.11
28305;BMP280;15569;42.652;23.040;2023-04-25T11:55:18;92086.09;;;19.03
28305;BMP280;15569;42.652;23.040;2023-04-25T11:57:44;92093.03;;;19.46
28305;BMP280;15569;42.652;23.040;2023-04-25T12:00:15;92087.44;;;20.32
28305;BMP280;15569;42.652;23.040;2023-04-25T12:02:47;92082.41;;;20.85
28305;BMP280;15569;42.652;23.040;2023-04-25T12:05:14;92085.66;;;21.16
28305;BMP280;15569;42.652;23.040;2023-04-25T12:07:40;92076.22;;;21.78
28305;BMP280;15569;42.652;23.040;2023-04-25T12:10:11;92081.13;;;22.40
28305;BMP280;15569;42.652;23.040;2023-04-25T12:12:38;92068.31;;;22.69
28305;BMP280;15569;42.652;23.040;2023-04-25T12:15:13;92066.47;;;22.49
28305;BMP280;15569;42.652;23.040;2023-04-25T12:17:41;92054.34;;;22.16
28305;BMP280;15569;42.652;23.040;2023-04-25T12:20:12;92066.50;;;23.02
28305;BMP280;15569;42.652;23.040;2023-04-25T12:22:41;92057.72;;;23.30
28305;BMP280;15569;42.652;23.040;2023-04-25T12:27:53;92060.03;;;21.29
28305;BMP280;15569;42.652;23.040;2023-04-25T12:30:19;92071.84;;;21.16
28305;BMP280;15569;42.652;23.040;2023-04-25T12:32:45;92088.69;;;20.66
28305;BMP280;15569;42.652;23.040;2023-04-25T12:35:10;92090.25;;;20.06
28305;BMP280;15569;42.652;23.040;2023-04-25T12:37:36;92092.31;;;19.27
28305;BMP280;15569;42.652;23.040;2023-04-25T12:40:01;92090.19;;;19.02
28305;BMP280;15569;42.652;23.040;2023-04-25T12:42:28;92090.56;;;18.24
28305;BMP280;15569;42.652;23.040;2023-04-25T12:44:53;92105.16;;;17.53
28305;BMP280;15569;42.652;23.040;2023-04-25T12:47:18;92107.84;;;17.47
28305;BMP280;15569;42.652;23.040;2023-04-25T12:49:44;92121.63;;;17.49
28305;BMP280;15569;42.652;23.040;2023-04-25T12:52:10;92115.66;;;17.72
28305;BMP280;15569;42.652;23.040;2023-04-25T12:54:35;92104.75;;;17.84
28305;BMP280;15569;42.652;23.040;2023-04-25T12:57:01;92109.66;;;17.96
28305;BMP280;15569;42.652;23.040;2023-04-25T12:59:27;92113.75;;;17.91
28305;BMP280;15569;42.652;23.040;2023-04-25T13:01:53;92117.09;;;17.81
28305;BMP280;15569;42.652;23.040;2023-04-25T13:04:18;92116.44;;;17.85
28305;BMP280;15569;42.652;23.040;2023-04-25T13:06:46;92112.97;;;17.78
28305;BMP280;15569;42.652;23.040;2023-04-25T13:09:11;92125.94;;;17.70
28305;BMP280;15569;42.652;23.040;2023-04-25T13:11:37;92120.44;;;17.70
28305;BMP280;15569;42.652;23.040;2023-04-25T13:14:02;92114.19;;;17.63
28305;BMP280;15569;42.652;23.040;2023-04-25T13:16:28;92116.19;;;17.57
28305;BMP280;15569;42.652;23.040;2023-04-25T13:18:53;92105.09;;;17.45
28305;BMP280;15569;42.652;23.040;2023-04-25T13:21:18;92108.66;;;17.57
28305;BMP280;15569;42.652;23.040;2023-04-25T13:23:44;92097.16;;;17.79
28305;BMP280;15569;42.652;23.040;2023-04-25T13:26:11;92094.53;;;18.01
28305;BMP280;15569;42.652;23.040;2023-04-25T13:28:37;92097.59;;;18.55
28305;BMP280;15569;42.652;23.040;2023-04-25T13:31:02;92097.69;;;18.75
28305;BMP280;15569;42.652;23.040;2023-04-25T13:33:28;92099.88;;;19.15
28305;BMP280;15569;42.652;23.040;2023-04-25T13:35:54;92090.16;;;20.42
28305;BMP280;15569;42.652;23.040;2023-04-25T13:38:24;92088.19;;;20.01
28305;BMP280;15569;42.652;23.040;2023-04-25T13:40:50;92082.66;;;19.95
28305;BMP280;15569;42.652;23.040;2023-04-25T13:43:19;92084.75;;;19.76
28305;BMP280;15569;42.652;23.040;2023-04-25T13:45:45;92085.16;;;20.83
28305;BMP280;15569;42.652;23.040;2023-04-25T13:48:10;92077.00;;;20.61
28305;BMP280;15569;42.652;23.040;2023-04-25T13:50:35;92076.47;;;19.88
28305;BMP280;15569;42.652;23.040;2023-04-25T13:53:01;92077.84;;;19.93
28305;BMP280;15569;42.652;23.040;2023-04-25T13:55:26;92074.38;;;20.17
28305;BMP280;15569;42.652;23.040;2023-04-25T13:57:52;92071.50;;;20.51
28305;BMP280;15569;42.652;23.040;2023-04-25T14:00:17;92070.78;;;20.61
28305;BMP280;15569;42.652;23.040;2023-04-25T14:02:43;92073.03;;;19.90
28305;BMP280;15569;42.652;23.040;2023-04-25T14:05:08;92066.16;;;19.31